sensor_id;sensor_type;location;lat;lon;timestamp;P1;durP1;ratioP1;P2;durP2;ratioP2
58669;SDS011;44439;47.924;10.198;2024-02-26T00:01:47;3.72;;;1.00;;
58669;SDS011;44439;47.924;10.198;2024-02-26T00:04:13;1.58;;;1.10;;
58669;SDS011;44439;47.924;10.198;2024-02-26T00:06:38;3.35;;;1.08;;
58669;SDS011;44439;47.924;10.198;2024-02-26T00:09:07;1.48;;;0.90;;
58669;SDS011;44439;47.924;10.198;2024-02-26T00:11:35;1.30;;;0.98;;
58669;SDS011;44439;47.924;10.198;2024-02-26T00:14:01;2.00;;;0.73;;
58669;SDS011;44439;47.924;10.198;2024-02-26T00:16:26;1.25;;;0.80;;
58669;SDS011;44439;47.924;10.198;2024-02-26T00:18:51;2.38;;;1.00;;
58669;SDS011;44439;47.924;10.198;2024-02-26T00:21:17;1.38;;;0.93;;
58669;SDS011;44439;47.924;10.198;2024-02-26T00:23:42;2.13;;;0.60;;
58669;SDS011;44439;47.924;10.198;2024-02-26T00:26:07;2.03;;;0.70;;
58669;SDS011;44439;47.924;10.198;2024-02-26T00:28:33;1.50;;;0.85;;
58669;SDS011;44439;47.924;10.198;2024-02-26T00:30:58;1.08;;;0.55;;
58669;SDS011;44439;47.924;10.198;2024-02-26T00:33:23;1.50;;;0.80;;
58669;SDS011;44439;47.924;10.198;2024-02-26T00:35:49;1.25;;;0.63;;
58669;SDS011;44439;47.924;10.198;2024-02-26T00:38:14;1.50;;;0.60;;
58669;SDS011;44439;47.924;10.198;2024-02-26T00:40:40;1.17;;;0.70;;
58669;SDS011;44439;47.924;10.198;2024-02-26T00:43:08;0.60;;;0.40;;
58669;SDS011;44439;47.924;10.198;2024-02-26T00:45:33;0.77;;;0.40;;
58669;SDS011;44439;47.924;10.198;2024-02-26T00:47:59;0.70;;;0.43;;
58669;SDS011;44439;47.924;10.198;2024-02-26T00:50:29;0.40;;;0.40;;
58669;SDS011;44439;47.924;10.198;2024-02-26T00:52:54;0.70;;;0.45;;
58669;SDS011;44439;47.924;10.198;2024-02-26T00:55:20;1.27;;;0.60;;
58669;SDS011;44439;47.924;10.198;2024-02-26T00:57:45;1.60;;;0.88;;
58669;SDS011;44439;47.924;10.198;2024-02-26T01:00:11;1.15;;;0.60;;
58669;SDS011;44439;47.924;10.198;2024-02-26T01:02:37;0.88;;;0.40;;
58669;SDS011;44439;47.924;10.198;2024-02-26T01:05:03;0.55;;;0.40;;
58669;SDS011;44439;47.924;10.198;2024-02-26T01:07:29;1.80;;;0.55;;
58669;SDS011;44439;47.924;10.198;2024-02-26T01:10:00;0.63;;;0.55;;
58669;SDS011;44439;47.924;10.198;2024-02-26T01:12:25;0.50;;;0.40;;
58669;SDS011;44439;47.924;10.198;2024-02-26T01:14:51;1.17;;;0.47;;
58669;SDS011;44439;47.924;10.198;2024-02-26T01:17:16;0.35;;;0.35;;
58669;SDS011;44439;47.924;10.198;2024-02-26T01:19:42;0.40;;;0.40;;
58669;SDS011;44439;47.924;10.198;2024-02-26T01:22:07;0.85;;;0.40;;
58669;SDS011;44439;47.924;10.198;2024-02-26T01:24:33;1.95;;;0.40;;
58669;SDS011;44439;47.924;10.198;2024-02-26T01:26:59;0.60;;;0.30;;
58669;SDS011;44439;47.924;10.198;2024-02-26T01:29:24;1.67;;;0.45;;
58669;SDS011;44439;47.924;10.198;2024-02-26T01:31:50;0.82;;;0.40;;
58669;SDS011;44439;47.924;10.198;2024-02-26T01:34:15;0.35;;;0.30;;
58669;SDS011;44439;47.924;10.198;2024-02-26T01:36:40;0.25;;;0.25;;
58669;SDS011;44439;47.924;10.198;2024-02-26T01:39:06;0.40;;;0.30;;
58669;SDS011;44439;47.924;10.198;2024-02-26T01:41:31;0.50;;;0.20;;
58669;SDS011;44439;47.924;10.198;2024-02-26T01:43:56;1.55;;;0.32;;
58669;SDS011;44439;47.924;10.198;2024-02-26T01:46:22;0.50;;;0.32;;
58669;SDS011;44439;47.924;10.198;2024-02-26T01:48:47;0.55;;;0.40;;
58669;SDS011;44439;47.924;10.198;2024-02-26T01:51:14;0.30;;;0.20;;
58669;SDS011;44439;47.924;10.198;2024-02-26T01:53:40;0.47;;;0.20;;
58669;SDS011;44439;47.924;10.198;2024-02-26T01:56:06;0.25;;;0.25;;
58669;SDS011;44439;47.924;10.198;2024-02-26T01:58:32;0.30;;;0.30;;
58669;SDS011;44439;47.924;10.198;2024-02-26T02:00:57;0.50;;;0.30;;
58669;SDS011;44439;47.924;10.198;2024-02-26T02:03:23;0.40;;;0.25;;
58669;SDS011;44439;47.924;10.198;2024-02-26T02:05:49;0.40;;;0.40;;
58669;SDS011;44439;47.924;10.198;2024-02-26T02:08:14;0.20;;;0.20;;
58669;SDS011;44439;47.924;10.198;2024-02-26T02:10:40;0.55;;;0.30;;
58669;SDS011;44439;47.924;10.198;2024-02-26T02:13:07;0.50;;;0.40;;
58669;SDS011;44439;47.924;10.198;2024-02-26T02:15:32;0.43;;;0.30;;
58669;SDS011;44439;47.924;10.198;2024-02-26T02:17:57;0.93;;;0.43;;
58669;SDS011;44439;47.924;10.198;2024-02-26T02:20:24;0.80;;;0.60;;
58669;SDS011;44439;47.924;10.198;2024-02-26T02:22:59;0.30;;;0.20;;
58669;SDS011;44439;47.924;10.198;2024-02-26T02:25:24;1.80;;;0.32;;
58669;SDS011;44439;47.924;10.198;2024-02-26T02:27:50;0.77;;;0.60;;
58669;SDS011;44439;47.924;10.198;2024-02-26T02:30:16;0.70;;;0.50;;
58669;SDS011;44439;47.924;10.198;2024-02-26T02:32:41;0.90;;;0.70;;
58669;SDS011;44439;47.924;10.198;2024-02-26T02:35:07;0.65;;;0.65;;
58669;SDS011;44439;47.924;10.198;2024-02-26T02:37:32;0.90;;;0.70;;
58669;SDS011;44439;47.924;10.198;2024-02-26T02:39:58;1.02;;;0.40;;
58669;SDS011;44439;47.924;10.198;2024-02-26T02:42:23;0.93;;;0.60;;
58669;SDS011;44439;47.924;10.198;2024-02-26T02:44:49;1.58;;;0.60;;
58669;SDS011;44439;47.924;10.198;2024-02-26T02:47:14;0.93;;;0.40;;
58669;SDS011;44439;47.924;10.198;2024-02-26T02:49:39;1.38;;;0.60;;
58669;SDS011;44439;47.924;10.198;2024-02-26T02:52:05;0.77;;;0.40;;
58669;SDS011;44439;47.924;10.198;2024-02-26T02:54:30;0.93;;;0.50;;
58669;SDS011;44439;47.924;10.198;2024-02-26T02:56:56;1.90;;;0.40;;
58669;SDS011;44439;47.924;10.198;2024-02-26T02:59:21;0.20;;;0.20;;
58669;SDS011;44439;47.924;10.198;2024-02-26T03:01:46;0.40;;;0.30;;
58669;SDS011;44439;47.924;10.198;2024-02-26T03:04:12;0.30;;;0.30;;
58669;SDS011;44439;47.924;10.198;2024-02-26T03:06:37;0.55;;;0.40;;
58669;SDS011;44439;47.924;10.198;2024-02-26T03:09:04;2.10;;;0.70;;
58669;SDS011;44439;47.924;10.198;2024-02-26T03:11:29;2.30;;;1.17;;
58669;SDS011;44439;47.924;10.198;2024-02-26T03:13:54;1.77;;;1.30;;
58669;SDS011;44439;47.924;10.198;2024-02-26T03:16:20;1.92;;;1.50;;
58669;SDS011;44439;47.924;10.198;2024-02-26T03:18:45;1.55;;;0.98;;
58669;SDS011;44439;47.924;10.198;2024-02-26T03:21:11;1.88;;;1.20;;
58669;SDS011;44439;47.924;10.198;2024-02-26T03:23:36;2.30;;;1.13;;
58669;SDS011;44439;47.924;10.198;2024-02-26T03:26:03;1.33;;;0.95;;
58669;SDS011;44439;47.924;10.198;2024-02-26T03:28:28;1.42;;;1.13;;
58669;SDS011;44439;47.924;10.198;2024-02-26T03:30:54;2.17;;;1.35;;
58669;SDS011;44439;47.924;10.198;2024-02-26T03:33:19;1.50;;;1.00;;
58669;SDS011;44439;47.924;10.198;2024-02-26T03:35:44;1.15;;;0.90;;
58669;SDS011;44439;47.924;10.198;2024-02-26T03:38:10;1.70;;;0.90;;
58669;SDS011;44439;47.924;10.198;2024-02-26T03:40:35;1.42;;;0.98;;
58669;SDS011;44439;47.924;10.198;2024-02-26T03:43:01;1.65;;;1.40;;
58669;SDS011;44439;47.924;10.198;2024-02-26T03:45:27;1.63;;;1.00;;
58669;SDS011;44439;47.924;10.198;2024-02-26T03:47:54;1.90;;;1.10;;
58669;SDS011;44439;47.924;10.198;2024-02-26T03:50:20;2.55;;;1.20;;
58669;SDS011;44439;47.924;10.198;2024-02-26T03:52:45;1.42;;;0.85;;
58669;SDS011;44439;47.924;10.198;2024-02-26T03:55:10;1.05;;;0.90;;
58669;SDS011;44439;47.924;10.198;2024-02-26T03:57:36;1.67;;;1.00;;
58669;SDS011;44439;47.924;10.198;2024-02-26T04:00:02;3.42;;;0.98;;
58669;SDS011;44439;47.924;10.198;2024-02-26T04:02:28;1.73;;;1.00;;
58669;SDS011;44439;47.924;10.198;2024-02-26T04:04:53;2.10;;;1.38;;
58669;SDS011;44439;47.924;10.198;2024-02-26T04:07:19;1.73;;;1.00;;
58669;SDS011;44439;47.924;10.198;2024-02-26T04:09:46;1.52;;;0.95;;
58669;SDS011;44439;47.924;10.198;2024-02-26T04:12:11;3.40;;;1.40;;
58669;SDS011;44439;47.924;10.198;2024-02-26T04:14:36;1.25;;;1.15;;
58669;SDS011;44439;47.924;10.198;2024-02-26T04:17:02;2.10;;;1.70;;
58669;SDS011;44439;47.924;10.198;2024-02-26T04:19:28;2.67;;;1.60;;
58669;SDS011;44439;47.924;10.198;2024-02-26T04:21:54;1.73;;;1.30;;
58669;SDS011;44439;47.924;10.198;2024-02-26T04:24:19;2.17;;;1.30;;
58669;SDS011;44439;47.924;10.198;2024-02-26T04:26:45;2.33;;;1.50;;
58669;SDS011;44439;47.924;10.198;2024-02-26T04:29:10;1.40;;;1.05;;
58669;SDS011;44439;47.924;10.198;2024-02-26T06:42:44;1.98;;;1.13;;
58669;SDS011;44439;47.924;10.198;2024-02-26T15:26:45;8.25;;;4.57;;
58669;SDS011;44439;47.924;10.198;2024-02-26T15:29:11;5.57;;;1.40;;
58669;SDS011;44439;47.924;10.198;2024-02-26T15:31:37;5.20;;;2.10;;
58669;SDS011;44439;47.924;10.198;2024-02-26T15:34:02;4.28;;;1.30;;
58669;SDS011;44439;47.924;10.198;2024-02-26T15:36:28;3.58;;;1.63;;
58669;SDS011;44439;47.924;10.198;2024-02-26T15:38:54;2.30;;;1.30;;
58669;SDS011;44439;47.924;10.198;2024-02-26T15:41:19;3.80;;;2.05;;
58669;SDS011;44439;47.924;10.198;2024-02-26T15:43:45;5.72;;;3.33;;
58669;SDS011;44439;47.924;10.198;2024-02-26T15:46:10;16.52;;;9.00;;
58669;SDS011;44439;47.924;10.198;2024-02-26T15:48:36;4.63;;;3.03;;
58669;SDS011;44439;47.924;10.198;2024-02-26T15:51:01;3.45;;;2.20;;
58669;SDS011;44439;47.924;10.198;2024-02-26T15:53:27;2.38;;;1.25;;
58669;SDS011;44439;47.924;10.198;2024-02-26T15:55:52;1.38;;;1.02;;
58669;SDS011;44439;47.924;10.198;2024-02-26T17:12:16;5.30;;;3.50;;
58669;SDS011;44439;47.924;10.198;2024-02-26T18:52:09;4.30;;;2.25;;
58669;SDS011;44439;47.924;10.198;2024-02-26T18:54:35;4.35;;;3.05;;
58669;SDS011;44439;47.924;10.198;2024-02-26T18:57:00;7.40;;;2.97;;
58669;SDS011;44439;47.924;10.198;2024-02-26T18:59:27;6.43;;;3.38;;
58669;SDS011;44439;47.924;10.198;2024-02-26T19:01:52;6.85;;;3.25;;
58669;SDS011;44439;47.924;10.198;2024-02-26T19:04:18;8.73;;;4.78;;
58669;SDS011;44439;47.924;10.198;2024-02-26T19:53:47;4.88;;;2.72;;
58669;SDS011;44439;47.924;10.198;2024-02-26T21:37:03;5.03;;;3.83;;
58669;SDS011;44439;47.924;10.198;2024-02-26T21:39:28;4.57;;;3.72;;
58669;SDS011;44439;47.924;10.198;2024-02-26T21:41:54;7.07;;;5.00;;
58669;SDS011;44439;47.924;10.198;2024-02-26T21:44:19;5.00;;;3.67;;
58669;SDS011;44439;47.924;10.198;2024-02-26T21:46:44;6.40;;;3.67;;
58669;SDS011;44439;47.924;10.198;2024-02-26T21:49:11;4.28;;;3.13;;
58669;SDS011;44439;47.924;10.198;2024-02-26T21:51:46;5.03;;;3.33;;
58669;SDS011;44439;47.924;10.198;2024-02-26T21:54:13;3.80;;;3.28;;
58669;SDS011;44439;47.924;10.198;2024-02-26T21:56:39;5.25;;;3.55;;
58669;SDS011;44439;47.924;10.198;2024-02-26T21:59:05;5.03;;;3.50;;
58669;SDS011;44439;47.924;10.198;2024-02-26T22:01:32;4.15;;;3.55;;
58669;SDS011;44439;47.924;10.198;2024-02-26T22:04:00;4.95;;;3.33;;
58669;SDS011;44439;47.924;10.198;2024-02-26T22:06:26;4.22;;;3.33;;
58669;SDS011;44439;47.924;10.198;2024-02-26T22:09:00;5.18;;;3.70;;
58669;SDS011;44439;47.924;10.198;2024-02-26T22:11:26;4.53;;;3.55;;
58669;SDS011;44439;47.924;10.198;2024-02-26T22:13:52;4.72;;;3.58;;
58669;SDS011;44439;47.924;10.198;2024-02-26T22:16:17;4.85;;;3.65;;
58669;SDS011;44439;47.924;10.198;2024-02-26T22:18:42;6.68;;;3.85;;
58669;SDS011;44439;47.924;10.198;2024-02-26T22:21:09;6.80;;;3.60;;
58669;SDS011;44439;47.924;10.198;2024-02-26T22:23:35;4.75;;;3.92;;
58669;SDS011;44439;47.924;10.198;2024-02-26T22:26:01;5.85;;;3.80;;
58669;SDS011;44439;47.924;10.198;2024-02-26T22:28:28;4.82;;;4.05;;
58669;SDS011;44439;47.924;10.198;2024-02-26T22:30:53;5.30;;;4.00;;
58669;SDS011;44439;47.924;10.198;2024-02-26T22:33:19;5.60;;;3.63;;
58669;SDS011;44439;47.924;10.198;2024-02-26T22:35:44;5.18;;;3.75;;
58669;SDS011;44439;47.924;10.198;2024-02-26T22:38:09;6.13;;;4.03;;
58669;SDS011;44439;47.924;10.198;2024-02-26T22:40:35;6.53;;;4.05;;
58669;SDS011;44439;47.924;10.198;2024-02-26T22:43:01;4.40;;;3.75;;
58669;SDS011;44439;47.924;10.198;2024-02-26T22:45:27;4.80;;;3.67;;
58669;SDS011;44439;47.924;10.198;2024-02-26T22:47:52;5.18;;;3.83;;
58669;SDS011;44439;47.924;10.198;2024-02-26T22:50:18;4.57;;;3.50;;
58669;SDS011;44439;47.924;10.198;2024-02-26T22:52:44;6.03;;;4.03;;
58669;SDS011;44439;47.924;10.198;2024-02-26T22:55:10;5.15;;;3.50;;
58669;SDS011;44439;47.924;10.198;2024-02-26T22:57:36;5.95;;;3.63;;
58669;SDS011;44439;47.924;10.198;2024-02-26T23:00:01;4.35;;;3.40;;
58669;SDS011;44439;47.924;10.198;2024-02-26T23:02:46;6.00;;;3.97;;
58669;SDS011;44439;47.924;10.198;2024-02-26T23:05:12;6.35;;;4.00;;
58669;SDS011;44439;47.924;10.198;2024-02-26T23:07:38;4.90;;;3.90;;
58669;SDS011;44439;47.924;10.198;2024-02-26T23:10:05;6.25;;;4.20;;
58669;SDS011;44439;47.924;10.198;2024-02-26T23:12:30;7.47;;;4.45;;
58669;SDS011;44439;47.924;10.198;2024-02-26T23:14:57;5.55;;;3.80;;
58669;SDS011;44439;47.924;10.198;2024-02-26T23:17:23;5.65;;;4.13;;
58669;SDS011;44439;47.924;10.198;2024-02-26T23:19:48;6.03;;;3.90;;
58669;SDS011;44439;47.924;10.198;2024-02-26T23:22:14;7.70;;;4.50;;
58669;SDS011;44439;47.924;10.198;2024-02-26T23:24:39;5.95;;;4.10;;
58669;SDS011;44439;47.924;10.198;2024-02-26T23:27:04;6.25;;;4.43;;
58669;SDS011;44439;47.924;10.198;2024-02-26T23:29:30;5.95;;;4.15;;
58669;SDS011;44439;47.924;10.198;2024-02-26T23:31:55;7.28;;;4.60;;
58669;SDS011;44439;47.924;10.198;2024-02-26T23:34:20;6.78;;;4.72;;
58669;SDS011;44439;47.924;10.198;2024-02-26T23:36:46;6.13;;;4.78;;
58669;SDS011;44439;47.924;10.198;2024-02-26T23:39:11;7.18;;;4.63;;
58669;SDS011;44439;47.924;10.198;2024-02-26T23:41:36;7.07;;;5.05;;
58669;SDS011;44439;47.924;10.198;2024-02-26T23:44:02;7.72;;;5.63;;
58669;SDS011;44439;47.924;10.198;2024-02-26T23:46:33;7.72;;;5.15;;
58669;SDS011;44439;47.924;10.198;2024-02-26T23:49:00;5.32;;;4.20;;
58669;SDS011;44439;47.924;10.198;2024-02-26T23:51:26;5.35;;;4.40;;
58669;SDS011;44439;47.924;10.198;2024-02-26T23:53:51;8.43;;;4.90;;
58669;SDS011;44439;47.924;10.198;2024-02-26T23:56:16;5.22;;;4.68;;
58669;SDS011;44439;47.924;10.198;2024-02-26T23:58:42;6.20;;;4.20;;
